sensor_id;sensor_type;location;lat;lon;timestamp;temperature;humidity
21318;DHT22;10818;50.830;6.524;2024-02-26T00:00:28;7.30;99.90
21318;DHT22;10818;50.830;6.524;2024-02-26T00:05:29;7.40;99.90
21318;DHT22;10818;50.830;6.524;2024-02-26T00:10:31;7.40;99.90
21318;DHT22;10818;50.830;6.524;2024-02-26T00:15:32;7.60;99.90
21318;DHT22;10818;50.830;6.524;2024-02-26T00:20:35;7.60;99.90
21318;DHT22;10818;50.830;6.524;2024-02-26T00:25:36;7.60;99.90
21318;DHT22;10818;50.830;6.524;2024-02-26T00:30:37;7.60;99.90
21318;DHT22;10818;50.830;6.524;2024-02-26T00:35:38;7.60;99.90
21318;DHT22;10818;50.830;6.524;2024-02-26T00:40:38;7.50;99.90
21318;DHT22;10818;50.830;6.524;2024-02-26T00:45:39;7.50;99.90
21318;DHT22;10818;50.830;6.524;2024-02-26T00:50:40;7.50;99.90
21318;DHT22;10818;50.830;6.524;2024-02-26T00:55:40;7.60;99.90
21318;DHT22;10818;50.830;6.524;2024-02-26T01:00:41;7.30;99.90
21318;DHT22;10818;50.830;6.524;2024-02-26T01:05:41;7.30;99.90
21318;DHT22;10818;50.830;6.524;2024-02-26T01:10:42;7.30;99.90
21318;DHT22;10818;50.830;6.524;2024-02-26T01:15:43;7.60;99.90
21318;DHT22;10818;50.830;6.524;2024-02-26T01:20:44;7.60;99.90
21318;DHT22;10818;50.830;6.524;2024-02-26T01:25:44;7.70;99.90
21318;DHT22;10818;50.830;6.524;2024-02-26T01:30:45;7.60;99.90
21318;DHT22;10818;50.830;6.524;2024-02-26T01:35:45;7.40;99.90
21318;DHT22;10818;50.830;6.524;2024-02-26T01:40:46;7.40;99.90
21318;DHT22;10818;50.830;6.524;2024-02-26T01:45:47;7.50;99.90
21318;DHT22;10818;50.830;6.524;2024-02-26T01:50:47;7.30;99.90
21318;DHT22;10818;50.830;6.524;2024-02-26T01:55:48;7.50;99.90
21318;DHT22;10818;50.830;6.524;2024-02-26T02:00:48;7.50;99.90
21318;DHT22;10818;50.830;6.524;2024-02-26T02:05:49;7.50;99.90
21318;DHT22;10818;50.830;6.524;2024-02-26T02:10:50;7.60;99.90
21318;DHT22;10818;50.830;6.524;2024-02-26T02:15:50;7.40;99.90
21318;DHT22;10818;50.830;6.524;2024-02-26T02:20:52;7.40;99.90
21318;DHT22;10818;50.830;6.524;2024-02-26T02:25:53;7.60;99.90
21318;DHT22;10818;50.830;6.524;2024-02-26T02:30:55;7.50;99.90
21318;DHT22;10818;50.830;6.524;2024-02-26T02:35:56;7.40;99.90
21318;DHT22;10818;50.830;6.524;2024-02-26T02:40:58;7.30;99.90
21318;DHT22;10818;50.830;6.524;2024-02-26T02:45:58;7.00;99.90
21318;DHT22;10818;50.830;6.524;2024-02-26T02:50:59;7.40;99.90
21318;DHT22;10818;50.830;6.524;2024-02-26T02:55:59;7.30;99.90
21318;DHT22;10818;50.830;6.524;2024-02-26T03:00:59;7.30;99.90
21318;DHT22;10818;50.830;6.524;2024-02-26T03:06:01;7.50;99.90
21318;DHT22;10818;50.830;6.524;2024-02-26T03:11:01;7.30;99.90
21318;DHT22;10818;50.830;6.524;2024-02-26T03:16:05;7.20;99.90
21318;DHT22;10818;50.830;6.524;2024-02-26T03:21:06;7.20;99.90
21318;DHT22;10818;50.830;6.524;2024-02-26T03:26:06;7.30;99.90
21318;DHT22;10818;50.830;6.524;2024-02-26T03:31:08;7.50;99.90
21318;DHT22;10818;50.830;6.524;2024-02-26T03:36:10;7.30;99.90
21318;DHT22;10818;50.830;6.524;2024-02-26T03:41:11;7.30;99.90
21318;DHT22;10818;50.830;6.524;2024-02-26T03:46:12;7.10;99.90
21318;DHT22;10818;50.830;6.524;2024-02-26T03:51:13;7.20;99.90
21318;DHT22;10818;50.830;6.524;2024-02-26T03:56:14;7.40;99.90
21318;DHT22;10818;50.830;6.524;2024-02-26T04:01:14;7.30;99.90
21318;DHT22;10818;50.830;6.524;2024-02-26T04:06:15;7.50;99.90
21318;DHT22;10818;50.830;6.524;2024-02-26T04:11:15;7.40;99.90
21318;DHT22;10818;50.830;6.524;2024-02-26T04:16:18;7.50;99.90
21318;DHT22;10818;50.830;6.524;2024-02-26T04:21:18;7.60;99.90
21318;DHT22;10818;50.830;6.524;2024-02-26T04:26:19;7.50;99.90
21318;DHT22;10818;50.830;6.524;2024-02-26T04:31:20;7.40;99.90
21318;DHT22;10818;50.830;6.524;2024-02-26T04:36:20;7.40;99.90
21318;DHT22;10818;50.830;6.524;2024-02-26T04:41:22;7.40;99.90
21318;DHT22;10818;50.830;6.524;2024-02-26T04:46:22;7.40;99.90
21318;DHT22;10818;50.830;6.524;2024-02-26T04:51:23;7.40;99.90
21318;DHT22;10818;50.830;6.524;2024-02-26T04:56:23;7.30;99.90
21318;DHT22;10818;50.830;6.524;2024-02-26T05:01:24;7.10;99.90
21318;DHT22;10818;50.830;6.524;2024-02-26T05:06:24;7.10;99.90
21318;DHT22;10818;50.830;6.524;2024-02-26T05:11:24;7.20;99.90
21318;DHT22;10818;50.830;6.524;2024-02-26T05:16:25;7.40;99.90
21318;DHT22;10818;50.830;6.524;2024-02-26T05:21:27;7.30;99.90
21318;DHT22;10818;50.830;6.524;2024-02-26T05:26:27;7.10;99.90
21318;DHT22;10818;50.830;6.524;2024-02-26T05:31:28;7.30;99.90
21318;DHT22;10818;50.830;6.524;2024-02-26T05:36:29;7.30;99.90
21318;DHT22;10818;50.830;6.524;2024-02-26T05:41:33;7.20;99.90
21318;DHT22;10818;50.830;6.524;2024-02-26T05:46:33;7.20;99.90
21318;DHT22;10818;50.830;6.524;2024-02-26T05:51:34;7.40;99.90
21318;DHT22;10818;50.830;6.524;2024-02-26T05:56:34;7.40;99.90
21318;DHT22;10818;50.830;6.524;2024-02-26T06:01:35;7.20;99.90
21318;DHT22;10818;50.830;6.524;2024-02-26T06:06:35;7.00;99.90
21318;DHT22;10818;50.830;6.524;2024-02-26T06:11:36;7.00;99.90
21318;DHT22;10818;50.830;6.524;2024-02-26T06:16:36;7.10;99.90
21318;DHT22;10818;50.830;6.524;2024-02-26T06:21:36;7.10;99.90
21318;DHT22;10818;50.830;6.524;2024-02-26T06:26:37;6.90;99.90
21318;DHT22;10818;50.830;6.524;2024-02-26T06:31:37;6.70;99.90
21318;DHT22;10818;50.830;6.524;2024-02-26T06:36:38;7.00;99.90
21318;DHT22;10818;50.830;6.524;2024-02-26T06:41:38;6.80;99.90
21318;DHT22;10818;50.830;6.524;2024-02-26T06:46:39;6.80;99.90
21318;DHT22;10818;50.830;6.524;2024-02-26T06:51:40;7.20;99.90
21318;DHT22;10818;50.830;6.524;2024-02-26T06:56:40;7.00;99.90
21318;DHT22;10818;50.830;6.524;2024-02-26T07:01:41;6.80;99.90
21318;DHT22;10818;50.830;6.524;2024-02-26T07:06:41;6.80;99.90
21318;DHT22;10818;50.830;6.524;2024-02-26T07:11:44;6.70;99.90
21318;DHT22;10818;50.830;6.524;2024-02-26T07:16:44;6.90;99.90
21318;DHT22;10818;50.830;6.524;2024-02-26T07:21:45;6.70;99.90
21318;DHT22;10818;50.830;6.524;2024-02-26T07:26:45;7.00;99.90
21318;DHT22;10818;50.830;6.524;2024-02-26T07:31:45;7.00;99.90
21318;DHT22;10818;50.830;6.524;2024-02-26T07:36:46;7.10;99.90
21318;DHT22;10818;50.830;6.524;2024-02-26T07:41:46;7.10;99.90
21318;DHT22;10818;50.830;6.524;2024-02-26T07:46:49;6.80;99.90
21318;DHT22;10818;50.830;6.524;2024-02-26T07:51:50;6.90;99.90
21318;DHT22;10818;50.830;6.524;2024-02-26T07:56:50;7.00;99.90
21318;DHT22;10818;50.830;6.524;2024-02-26T08:01:51;6.80;99.90
21318;DHT22;10818;50.830;6.524;2024-02-26T08:07:12;7.00;99.90
21318;DHT22;10818;50.830;6.524;2024-02-26T08:12:39;6.90;99.90
21318;DHT22;10818;50.830;6.524;2024-02-26T08:17:49;7.00;99.90
21318;DHT22;10818;50.830;6.524;2024-02-26T08:22:50;7.30;99.90
21318;DHT22;10818;50.830;6.524;2024-02-26T08:27:57;7.40;99.90
21318;DHT22;10818;50.830;6.524;2024-02-26T08:32:57;7.40;99.90
21318;DHT22;10818;50.830;6.524;2024-02-26T08:37:58;7.50;99.90
21318;DHT22;10818;50.830;6.524;2024-02-26T08:43:04;7.60;99.90
21318;DHT22;10818;50.830;6.524;2024-02-26T08:48:07;7.30;99.90
21318;DHT22;10818;50.830;6.524;2024-02-26T08:53:07;7.30;99.90
21318;DHT22;10818;50.830;6.524;2024-02-26T08:58:11;7.50;99.90
21318;DHT22;10818;50.830;6.524;2024-02-26T09:03:11;7.20;99.90
21318;DHT22;10818;50.830;6.524;2024-02-26T09:08:12;7.40;99.90
21318;DHT22;10818;50.830;6.524;2024-02-26T09:13:12;7.60;99.90
21318;DHT22;10818;50.830;6.524;2024-02-26T09:18:13;7.30;99.90
21318;DHT22;10818;50.830;6.524;2024-02-26T09:23:15;7.60;99.90
21318;DHT22;10818;50.830;6.524;2024-02-26T09:28:15;7.50;99.90
21318;DHT22;10818;50.830;6.524;2024-02-26T09:33:17;7.50;99.90
21318;DHT22;10818;50.830;6.524;2024-02-26T10:01:19;7.70;99.90
21318;DHT22;10818;50.830;6.524;2024-02-26T10:06:20;7.50;99.90
21318;DHT22;10818;50.830;6.524;2024-02-26T10:11:21;8.00;99.90
21318;DHT22;10818;50.830;6.524;2024-02-26T10:16:22;7.80;99.90
21318;DHT22;10818;50.830;6.524;2024-02-26T10:21:23;7.80;99.90
21318;DHT22;10818;50.830;6.524;2024-02-26T10:26:23;7.70;99.90
21318;DHT22;10818;50.830;6.524;2024-02-26T10:31:24;7.80;99.90
21318;DHT22;10818;50.830;6.524;2024-02-26T10:36:25;7.90;99.90
21318;DHT22;10818;50.830;6.524;2024-02-26T10:41:26;7.90;99.90
21318;DHT22;10818;50.830;6.524;2024-02-26T10:46:27;7.80;99.90
21318;DHT22;10818;50.830;6.524;2024-02-26T10:51:28;7.80;99.90
21318;DHT22;10818;50.830;6.524;2024-02-26T10:56:29;7.90;99.90
21318;DHT22;10818;50.830;6.524;2024-02-26T11:01:30;8.00;99.90
21318;DHT22;10818;50.830;6.524;2024-02-26T11:06:31;7.80;99.90
21318;DHT22;10818;50.830;6.524;2024-02-26T11:11:34;8.00;99.90
21318;DHT22;10818;50.830;6.524;2024-02-26T11:16:36;8.00;99.90
21318;DHT22;10818;50.830;6.524;2024-02-26T11:21:38;8.10;99.90
21318;DHT22;10818;50.830;6.524;2024-02-26T11:26:47;8.10;99.90
21318;DHT22;10818;50.830;6.524;2024-02-26T11:31:50;7.90;99.90
21318;DHT22;10818;50.830;6.524;2024-02-26T11:36:51;7.90;99.90
21318;DHT22;10818;50.830;6.524;2024-02-26T11:41:51;7.90;99.90
21318;DHT22;10818;50.830;6.524;2024-02-26T11:46:52;7.80;99.90
21318;DHT22;10818;50.830;6.524;2024-02-26T11:51:53;7.90;99.90
21318;DHT22;10818;50.830;6.524;2024-02-26T11:56:55;7.90;99.90
21318;DHT22;10818;50.830;6.524;2024-02-26T12:01:58;7.90;99.90
21318;DHT22;10818;50.830;6.524;2024-02-26T12:07:00;7.80;99.90
21318;DHT22;10818;50.830;6.524;2024-02-26T12:12:05;8.10;99.90
21318;DHT22;10818;50.830;6.524;2024-02-26T12:17:07;7.70;99.90
21318;DHT22;10818;50.830;6.524;2024-02-26T12:22:09;7.90;99.90
21318;DHT22;10818;50.830;6.524;2024-02-26T12:27:13;7.90;99.90
21318;DHT22;10818;50.830;6.524;2024-02-26T12:32:13;7.90;99.90
21318;DHT22;10818;50.830;6.524;2024-02-26T12:37:13;7.90;99.90
21318;DHT22;10818;50.830;6.524;2024-02-26T12:42:14;7.90;99.90
21318;DHT22;10818;50.830;6.524;2024-02-26T12:47:14;7.80;99.90
21318;DHT22;10818;50.830;6.524;2024-02-26T12:52:16;7.80;99.90
21318;DHT22;10818;50.830;6.524;2024-02-26T12:57:17;7.80;99.90
21318;DHT22;10818;50.830;6.524;2024-02-26T13:02:18;7.60;99.90
21318;DHT22;10818;50.830;6.524;2024-02-26T13:07:18;7.80;99.90
21318;DHT22;10818;50.830;6.524;2024-02-26T13:12:19;7.80;99.90
21318;DHT22;10818;50.830;6.524;2024-02-26T13:17:22;7.80;99.90
21318;DHT22;10818;50.830;6.524;2024-02-26T13:22:25;7.80;99.90
21318;DHT22;10818;50.830;6.524;2024-02-26T13:27:25;7.90;99.90
21318;DHT22;10818;50.830;6.524;2024-02-26T13:32:26;7.80;99.90
21318;DHT22;10818;50.830;6.524;2024-02-26T13:37:31;7.80;99.90
21318;DHT22;10818;50.830;6.524;2024-02-26T13:42:31;7.80;99.90
21318;DHT22;10818;50.830;6.524;2024-02-26T13:47:32;7.80;99.90
21318;DHT22;10818;50.830;6.524;2024-02-26T13:52:33;7.90;99.90
21318;DHT22;10818;50.830;6.524;2024-02-26T13:57:34;7.90;99.90
21318;DHT22;10818;50.830;6.524;2024-02-26T14:02:35;7.90;99.90
21318;DHT22;10818;50.830;6.524;2024-02-26T14:07:36;7.90;99.90
21318;DHT22;10818;50.830;6.524;2024-02-26T14:12:37;7.80;99.90
21318;DHT22;10818;50.830;6.524;2024-02-26T14:17:37;7.80;99.90
21318;DHT22;10818;50.830;6.524;2024-02-26T14:22:38;7.90;99.90
21318;DHT22;10818;50.830;6.524;2024-02-26T14:27:38;8.00;99.90
21318;DHT22;10818;50.830;6.524;2024-02-26T14:32:39;8.00;99.90
21318;DHT22;10818;50.830;6.524;2024-02-26T14:37:39;8.20;99.90
21318;DHT22;10818;50.830;6.524;2024-02-26T14:42:40;8.10;99.90
21318;DHT22;10818;50.830;6.524;2024-02-26T14:47:41;8.00;99.90
21318;DHT22;10818;50.830;6.524;2024-02-26T14:52:41;8.10;99.90
21318;DHT22;10818;50.830;6.524;2024-02-26T14:57:41;8.10;99.90
21318;DHT22;10818;50.830;6.524;2024-02-26T15:02:42;8.10;99.90
21318;DHT22;10818;50.830;6.524;2024-02-26T15:07:43;8.20;99.90
21318;DHT22;10818;50.830;6.524;2024-02-26T15:12:43;8.30;99.90
21318;DHT22;10818;50.830;6.524;2024-02-26T15:17:43;8.40;99.90
21318;DHT22;10818;50.830;6.524;2024-02-26T15:22:44;8.40;99.90
21318;DHT22;10818;50.830;6.524;2024-02-26T15:27:44;8.30;99.90
21318;DHT22;10818;50.830;6.524;2024-02-26T15:32:45;8.30;99.90
21318;DHT22;10818;50.830;6.524;2024-02-26T15:37:46;8.10;99.90
21318;DHT22;10818;50.830;6.524;2024-02-26T15:42:46;8.20;99.90
21318;DHT22;10818;50.830;6.524;2024-02-26T15:47:47;8.10;99.90
21318;DHT22;10818;50.830;6.524;2024-02-26T15:52:48;8.10;99.90
21318;DHT22;10818;50.830;6.524;2024-02-26T15:57:48;8.20;99.90
21318;DHT22;10818;50.830;6.524;2024-02-26T16:02:48;8.30;99.90
21318;DHT22;10818;50.830;6.524;2024-02-26T16:07:51;8.30;99.90
21318;DHT22;10818;50.830;6.524;2024-02-26T16:12:53;8.20;99.90
21318;DHT22;10818;50.830;6.524;2024-02-26T16:17:55;8.20;99.90
21318;DHT22;10818;50.830;6.524;2024-02-26T16:22:58;8.10;99.90
21318;DHT22;10818;50.830;6.524;2024-02-26T16:28:02;8.20;99.90
21318;DHT22;10818;50.830;6.524;2024-02-26T16:33:03;8.20;99.90
21318;DHT22;10818;50.830;6.524;2024-02-26T16:38:03;8.10;99.90
21318;DHT22;10818;50.830;6.524;2024-02-26T16:43:04;8.20;99.90
21318;DHT22;10818;50.830;6.524;2024-02-26T16:48:06;8.20;99.90
21318;DHT22;10818;50.830;6.524;2024-02-26T16:53:06;8.10;99.90
21318;DHT22;10818;50.830;6.524;2024-02-26T16:58:08;7.90;99.90
21318;DHT22;10818;50.830;6.524;2024-02-26T17:03:09;7.60;99.90
21318;DHT22;10818;50.830;6.524;2024-02-26T17:08:09;7.50;99.90
21318;DHT22;10818;50.830;6.524;2024-02-26T17:13:11;7.40;99.90
21318;DHT22;10818;50.830;6.524;2024-02-26T17:18:12;7.60;99.90
21318;DHT22;10818;50.830;6.524;2024-02-26T17:23:16;7.30;99.90
21318;DHT22;10818;50.830;6.524;2024-02-26T17:28:17;7.30;99.90
21318;DHT22;10818;50.830;6.524;2024-02-26T17:33:18;7.30;99.90
21318;DHT22;10818;50.830;6.524;2024-02-26T17:38:19;7.30;99.90
21318;DHT22;10818;50.830;6.524;2024-02-26T17:43:19;7.30;99.90
21318;DHT22;10818;50.830;6.524;2024-02-26T17:48:20;7.20;99.90
21318;DHT22;10818;50.830;6.524;2024-02-26T17:53:21;7.30;99.90
21318;DHT22;10818;50.830;6.524;2024-02-26T17:58:22;7.40;99.90
21318;DHT22;10818;50.830;6.524;2024-02-26T18:03:22;7.40;99.90
21318;DHT22;10818;50.830;6.524;2024-02-26T18:08:23;7.40;99.90
21318;DHT22;10818;50.830;6.524;2024-02-26T18:13:23;7.40;99.90
21318;DHT22;10818;50.830;6.524;2024-02-26T18:18:24;7.50;99.90
21318;DHT22;10818;50.830;6.524;2024-02-26T18:23:25;7.50;99.90
21318;DHT22;10818;50.830;6.524;2024-02-26T18:28:26;7.50;99.90
21318;DHT22;10818;50.830;6.524;2024-02-26T18:33:26;7.40;99.90
21318;DHT22;10818;50.830;6.524;2024-02-26T18:38:27;7.40;99.90
21318;DHT22;10818;50.830;6.524;2024-02-26T18:43:27;7.60;99.90
21318;DHT22;10818;50.830;6.524;2024-02-26T18:48:28;7.60;99.90
21318;DHT22;10818;50.830;6.524;2024-02-26T18:53:28;7.50;99.90
21318;DHT22;10818;50.830;6.524;2024-02-26T18:58:29;7.50;99.90
21318;DHT22;10818;50.830;6.524;2024-02-26T19:03:29;7.50;99.90
21318;DHT22;10818;50.830;6.524;2024-02-26T19:08:30;7.40;99.90
21318;DHT22;10818;50.830;6.524;2024-02-26T19:13:31;7.40;99.90
21318;DHT22;10818;50.830;6.524;2024-02-26T19:18:32;7.30;99.90
21318;DHT22;10818;50.830;6.524;2024-02-26T19:23:32;7.30;99.90
21318;DHT22;10818;50.830;6.524;2024-02-26T19:28:34;7.40;99.90
21318;DHT22;10818;50.830;6.524;2024-02-26T19:33:34;7.50;99.90
21318;DHT22;10818;50.830;6.524;2024-02-26T19:38:35;7.50;99.90
21318;DHT22;10818;50.830;6.524;2024-02-26T19:43:35;7.40;99.90
21318;DHT22;10818;50.830;6.524;2024-02-26T19:48:36;7.40;99.90
21318;DHT22;10818;50.830;6.524;2024-02-26T19:53:37;7.40;99.90
21318;DHT22;10818;50.830;6.524;2024-02-26T19:58:38;7.40;99.90
21318;DHT22;10818;50.830;6.524;2024-02-26T20:03:38;7.30;99.90
21318;DHT22;10818;50.830;6.524;2024-02-26T20:08:39;7.40;99.90
21318;DHT22;10818;50.830;6.524;2024-02-26T20:13:40;7.40;99.90
21318;DHT22;10818;50.830;6.524;2024-02-26T20:18:42;7.40;99.90
21318;DHT22;10818;50.830;6.524;2024-02-26T20:23:42;7.40;99.90
21318;DHT22;10818;50.830;6.524;2024-02-26T20:28:43;7.50;99.90
21318;DHT22;10818;50.830;6.524;2024-02-26T20:33:44;7.60;99.90
21318;DHT22;10818;50.830;6.524;2024-02-26T20:38:44;7.50;99.90
21318;DHT22;10818;50.830;6.524;2024-02-26T20:43:46;7.50;99.90
21318;DHT22;10818;50.830;6.524;2024-02-26T20:48:47;7.40;99.90
21318;DHT22;10818;50.830;6.524;2024-02-26T20:53:47;7.50;99.90
21318;DHT22;10818;50.830;6.524;2024-02-26T20:58:48;7.40;99.90
21318;DHT22;10818;50.830;6.524;2024-02-26T21:03:48;7.60;99.90
21318;DHT22;10818;50.830;6.524;2024-02-26T21:08:49;7.50;99.90
21318;DHT22;10818;50.830;6.524;2024-02-26T21:13:49;7.50;99.90
21318;DHT22;10818;50.830;6.524;2024-02-26T21:18:50;7.40;99.90
21318;DHT22;10818;50.830;6.524;2024-02-26T21:23:50;7.50;99.90
21318;DHT22;10818;50.830;6.524;2024-02-26T21:28:51;7.40;99.90
21318;DHT22;10818;50.830;6.524;2024-02-26T21:33:51;7.50;99.90
21318;DHT22;10818;50.830;6.524;2024-02-26T21:38:51;7.50;99.90
21318;DHT22;10818;50.830;6.524;2024-02-26T21:43:52;7.60;99.90
21318;DHT22;10818;50.830;6.524;2024-02-26T21:48:54;7.60;99.90
21318;DHT22;10818;50.830;6.524;2024-02-26T21:53:54;7.50;99.90
21318;DHT22;10818;50.830;6.524;2024-02-26T21:58:55;7.60;99.90
21318;DHT22;10818;50.830;6.524;2024-02-26T22:03:55;7.50;99.90
21318;DHT22;10818;50.830;6.524;2024-02-26T22:08:56;7.60;99.90
21318;DHT22;10818;50.830;6.524;2024-02-26T22:13:56;7.60;99.90
21318;DHT22;10818;50.830;6.524;2024-02-26T22:18:58;7.60;99.90
21318;DHT22;10818;50.830;6.524;2024-02-26T22:24:01;7.60;99.90
21318;DHT22;10818;50.830;6.524;2024-02-26T22:29:02;7.60;99.90
21318;DHT22;10818;50.830;6.524;2024-02-26T22:34:03;7.70;99.90
21318;DHT22;10818;50.830;6.524;2024-02-26T22:39:04;7.50;99.90
21318;DHT22;10818;50.830;6.524;2024-02-26T22:44:04;7.60;99.90
21318;DHT22;10818;50.830;6.524;2024-02-26T22:49:06;7.50;99.90
21318;DHT22;10818;50.830;6.524;2024-02-26T22:54:06;7.50;99.90
21318;DHT22;10818;50.830;6.524;2024-02-26T22:59:07;7.50;99.90
21318;DHT22;10818;50.830;6.524;2024-02-26T23:04:07;7.30;99.90
21318;DHT22;10818;50.830;6.524;2024-02-26T23:09:09;7.30;99.90
21318;DHT22;10818;50.830;6.524;2024-02-26T23:14:10;7.30;99.90
21318;DHT22;10818;50.830;6.524;2024-02-26T23:19:10;7.30;99.90
21318;DHT22;10818;50.830;6.524;2024-02-26T23:24:11;7.30;99.90
21318;DHT22;10818;50.830;6.524;2024-02-26T23:29:12;7.20;99.90
21318;DHT22;10818;50.830;6.524;2024-02-26T23:34:13;7.10;99.90
21318;DHT22;10818;50.830;6.524;2024-02-26T23:39:13;7.10;99.90
21318;DHT22;10818;50.830;6.524;2024-02-26T23:44:14;7.20;99.90
21318;DHT22;10818;50.830;6.524;2024-02-26T23:49:14;7.00;99.90
21318;DHT22;10818;50.830;6.524;2024-02-26T23:54:15;7.00;99.90
21318;DHT22;10818;50.830;6.524;2024-02-26T23:59:15;6.90;99.90
